Time;durP1;ratioP1;P1;durP2;ratioP2;P2;SDS_P1;SDS_P2;PMS_P1;PMS_P2;Temp;Humidity;BMP_temperature;BMP_pressure;BME280_temperature;BME280_humidity;BME280_pressure;Samples;Min_cycle;Max_cycle;Signal;HPM_P1;HPM_P2
2023/08/11 00:00:51;;;;;;;2.25;2.10;;;21.40;56.60;;;;;;5044716;28;20043;-50
2023/08/11 00:03:18;;;;;;;;;;;21.40;56.80;;;;;;5033362;28;20041;-52
2023/08/11 00:05:45;;;;;;;3.78;2.63;;;21.50;56.00;;;;;;5049827;28;19967;-50
2023/08/11 00:08:13;;;;;;;3.45;3.15;;;21.40;56.40;;;;;;5049100;28;20162;-50
2023/08/11 00:10:44;;;;;;;3.10;2.85;;;21.30;56.70;;;;;;5048545;28;20411;-52
2023/08/11 00:13:13;;;;;;;3.78;2.40;;;21.30;56.90;;;;;;5048182;28;20036;-51
2023/08/11 00:15:40;;;;;;;5.40;2.72;;;21.20;56.90;;;;;;5048475;28;20045;-52
2023/08/11 00:18:10;;;;;;;3.00;2.70;;;21.20;57.10;;;;;;5048222;28;20488;-52
2023/08/11 00:20:37;;;;;;;5.32;2.78;;;21.20;57.50;;;;;;5049035;28;20041;-53
2023/08/11 00:23:04;;;;;;;5.88;2.97;;;21.10;57.20;;;;;;5047275;28;20106;-52
2023/08/11 00:25:31;;;;;;;4.25;2.80;;;21.10;57.40;;;;;;5045787;28;20037;-52
2023/08/11 00:27:58;;;;;;;2.83;2.63;;;21.10;57.50;;;;;;5045788;28;20082;-53
2023/08/11 00:30:31;;;;;;;2.63;2.42;;;21.10;57.40;;;;;;5043774;28;20048;-53
2023/08/11 00:32:57;;;;;;;3.03;2.83;;;21.10;57.50;;;;;;5047077;28;20091;-52
2023/08/11 00:35:28;;;;;;;2.85;2.40;;;21.00;57.50;;;;;;5053555;28;20527;-53
2023/08/11 00:37:55;;;;;;;3.08;2.72;;;21.00;57.70;;;;;;5049449;28;20048;-53
2023/08/11 00:40:23;;;;;;;3.22;2.80;;;21.00;57.70;;;;;;5033527;28;20136;-52
2023/08/11 00:42:50;;;;;;;4.35;3.28;;;20.90;57.70;;;;;;5034012;28;20099;-52
2023/08/11 00:45:17;;;;;;;4.25;2.63;;;20.90;57.90;;;;;;5052312;28;20045;-51
2023/08/11 00:47:45;;;;;;;3.00;2.65;;;20.90;58.10;;;;;;5055714;28;20040;-53
2023/08/11 00:50:17;;;;;;;2.85;2.65;;;20.90;58.00;;;;;;5028739;28;20615;-53
2023/08/11 00:52:48;;;;;;;3.88;2.90;;;20.80;58.20;;;;;;5051236;28;20123;-50
2023/08/11 00:55:24;;;;;;;3.03;2.30;;;20.80;58.00;;;;;;5051075;28;20572;-49
2023/08/11 00:57:52;;;;;;;5.07;2.85;;;20.80;58.50;;;;;;5052228;28;20033;-51
2023/08/11 01:00:21;;;;;;;3.28;2.85;;;20.80;58.10;;;;;;5030861;28;20514;-51
2023/08/11 01:02:51;;;;;;;4.18;3.45;;;20.70;58.10;;;;;;5045526;28;20596;-50
2023/08/11 01:05:21;;;;;;;3.10;2.80;;;20.70;58.10;;;;;;5051378;28;20045;-53
2023/08/11 01:08:20;;;;;;;2.85;2.45;;;20.70;58.30;;;;;;5048584;28;20561;-53
2023/08/11 01:11:05;;;;;;;2.67;2.28;;;20.70;58.80;;;;;;5026096;28;20048;-52
2023/08/11 01:13:42;;;;;;;3.15;2.90;;;20.60;58.50;;;;;;5045015;28;20560;-51
2023/08/11 01:16:17;;;;;;;3.92;3.15;;;20.60;58.50;;;;;;5035650;28;20053;-49
2023/08/11 01:18:49;;;;;;;5.32;3.20;;;20.60;58.20;;;;;;5051853;28;20037;-48
2023/08/11 01:21:19;;;;;;;5.70;3.25;;;20.50;58.30;;;;;;5031339;28;20094;-52
2023/08/11 01:23:47;;;;;;;4.32;3.47;;;20.50;58.40;;;;;;5051108;28;20040;-52
2023/08/11 01:26:13;;;;;;;3.67;3.30;;;20.50;58.50;;;;;;5020989;28;20056;-48
2023/08/11 01:28:43;;;;;;;5.57;3.30;;;20.50;58.50;;;;;;5032113;28;20053;-52
2023/08/11 01:31:15;;;;;;;5.75;3.20;;;20.40;58.50;;;;;;5029526;28;20041;-53
2023/08/11 01:33:46;;;;;;;4.50;4.03;;;20.40;58.60;;;;;;5030484;28;20038;-52
2023/08/11 01:36:13;;;;;;;4.65;3.97;;;20.40;58.60;;;;;;5030336;28;20049;-53
2023/08/11 01:38:40;;;;;;;4.20;3.58;;;20.30;58.70;;;;;;5046505;28;20079;-49
2023/08/11 01:41:06;;;;;;;6.05;3.90;;;20.30;58.70;;;;;;5050810;28;20033;-52
2023/08/11 01:43:40;;;;;;;5.18;3.72;;;20.30;58.90;;;;;;5032950;28;20136;-52
2023/08/11 01:46:12;;;;;;;4.80;4.30;;;20.30;59.00;;;;;;5028053;28;20045;-50
2023/08/11 01:48:45;;;;;;;4.18;3.50;;;20.20;59.00;;;;;;5049027;28;20045;-50
2023/08/11 01:51:12;;;;;;;3.75;3.45;;;20.20;59.00;;;;;;5031881;28;20049;-52
2023/08/11 01:53:44;;;;;;;4.43;3.97;;;20.20;59.00;;;;;;5046710;28;20128;-53
2023/08/11 01:56:11;;;;;;;3.85;3.53;;;20.20;59.10;;;;;;5031814;28;20112;-52
2023/08/11 01:58:38;;;;;;;5.65;4.03;;;20.20;59.20;;;;;;5020048;28;20048;-50
2023/08/11 02:01:13;;;;;;;3.53;3.28;;;20.10;59.10;;;;;;5045306;28;20045;-49
2023/08/11 02:03:42;;;;;;;3.83;3.47;;;20.10;59.30;;;;;;5035763;28;20120;-51
2023/08/11 02:06:14;;;;;;;4.85;3.63;;;20.10;59.10;;;;;;5032569;28;20419;-54
2023/08/11 02:08:48;;;;;;;6.68;3.47;;;20.10;59.20;;;;;;5031083;28;20131;-53
2023/08/11 02:11:17;;;;;;;3.72;3.40;;;20.10;59.40;;;;;;5021835;28;20044;-52
2023/08/11 02:13:44;;;;;;;4.45;3.15;;;20.00;59.40;;;;;;5023037;28;20037;-50
2023/08/11 02:16:22;;;;;;;5.15;3.40;;;20.00;59.40;;;;;;5046596;28;20037;-50
2023/08/11 02:18:55;;;;;;;6.35;3.85;;;20.00;59.60;;;;;;5046998;28;20407;-51
2023/08/11 02:21:23;;;;;;;4.88;4.13;;;20.00;59.60;;;;;;5050019;28;20073;-53
2023/08/11 02:23:52;;;;;;;4.78;3.58;;;19.90;59.60;;;;;;5047519;28;20094;-53
2023/08/11 02:26:22;;;;;;;;;;;19.90;59.70;;;;;;5031818;28;20458;-52
2023/08/11 02:28:52;;;;;;;3.30;3.00;;;19.90;59.10;;;;;;5026060;28;19929;-51
2023/08/11 02:31:23;;;;;;;3.65;3.35;;;19.90;59.20;;;;;;5026564;28;20045;-52
2023/08/11 02:33:50;;;;;;;4.72;4.22;;;19.90;59.50;;;;;;5023276;28;20613;-52
2023/08/11 02:36:20;;;;;;;5.78;3.42;;;19.90;59.70;;;;;;5048936;28;20037;-53
2023/08/11 02:38:52;;;;;;;5.72;4.20;;;19.90;59.90;;;;;;5038211;28;20073;-53
2023/08/11 02:41:21;;;;;;;6.70;3.72;;;19.80;59.70;;;;;;5026214;28;20041;-53
2023/08/11 02:43:48;;;;;;;5.95;3.80;;;19.80;59.80;;;;;;5029458;28;20128;-53
2023/08/11 02:46:17;;;;;;;4.97;3.65;;;19.80;60.00;;;;;;5030548;28;20079;-53
2023/08/11 02:48:44;;;;;;;5.97;3.97;;;19.80;60.20;;;;;;5045106;28;20099;-49
2023/08/11 02:51:10;;;;;;;5.50;4.20;;;19.70;60.00;;;;;;5030929;28;20045;-53
2023/08/11 02:53:38;;;;;;;5.78;4.47;;;19.70;60.10;;;;;;5035359;28;20059;-54
2023/08/11 02:56:11;;;;;;;8.57;4.57;;;19.80;60.40;;;;;;5048971;28;20116;-53
2023/08/11 02:58:38;;;;;;;8.88;5.05;;;19.70;60.50;;;;;;5045284;28;20503;-51
2023/08/11 03:01:10;;;;;;;7.88;5.00;;;19.70;60.80;;;;;;5043624;28;20431;-53
2023/08/11 03:03:42;;;;;;;6.65;5.20;;;19.70;60.80;;;;;;5049944;28;20043;-53
2023/08/11 03:06:13;;;;;;;6.63;5.00;;;19.70;61.00;;;;;;5038782;28;20046;-52
2023/08/11 03:08:41;;;;;;;8.02;4.93;;;19.70;60.90;;;;;;5030980;28;20061;-53
2023/08/11 03:11:10;;;;;;;6.63;4.85;;;19.70;60.80;;;;;;5026840;28;20042;-52
2023/08/11 03:13:37;;;;;;;6.97;4.88;;;19.70;60.80;;;;;;5049633;28;20076;-52
2023/08/11 03:16:06;;;;;;;4.90;4.32;;;19.70;60.70;;;;;;5047028;28;20099;-53
2023/08/11 03:18:35;;;;;;;6.50;4.70;;;19.70;60.80;;;;;;5029902;28;20041;-52
2023/08/11 03:21:07;;;;;;;5.78;4.45;;;19.70;60.80;;;;;;5023364;28;20136;-52
2023/08/11 03:23:49;;;;;;;8.00;4.40;;;19.70;60.90;;;;;;5022317;28;20539;-53
2023/08/11 03:26:19;;;;;;;6.95;4.45;;;19.60;60.60;;;;;;5032264;28;20045;-52
2023/08/11 03:28:49;;;;;;;9.10;5.22;;;19.60;60.60;;;;;;5030817;28;20557;-52
2023/08/11 03:31:16;;;;;;;4.78;4.20;;;19.60;60.70;;;;;;5031468;28;20087;-51
2023/08/11 03:33:46;;;;;;;7.30;4.40;;;19.50;60.70;;;;;;5019944;28;20029;-51
2023/08/11 03:36:16;;;;;;;6.28;4.60;;;19.50;60.70;;;;;;5028931;28;20102;-51
2023/08/11 03:38:46;;;;;;;9.35;4.95;;;19.50;60.90;;;;;;5031387;28;20076;-52
2023/08/11 03:41:15;;;;;;;6.25;4.47;;;19.50;61.00;;;;;;5030132;28;20550;-52
2023/08/11 03:43:43;;;;;;;9.00;5.18;;;19.50;61.50;;;;;;5028889;28;20040;-51
2023/08/11 03:46:10;;;;;;;9.95;5.63;;;19.50;61.20;;;;;;5048026;28;20045;-52
2023/08/11 03:48:38;;;;;;;7.55;4.78;;;19.40;61.30;;;;;;5032153;28;20422;-53
2023/08/11 03:51:09;;;;;;;7.93;5.03;;;19.40;61.20;;;;;;5271659;23;20051;-53
2023/08/11 03:53:39;;;;;;;7.72;5.78;;;19.40;61.30;;;;;;5043659;28;20396;-52
2023/08/11 03:56:07;;;;;;;7.45;5.57;;;19.40;61.30;;;;;;5022613;28;20033;-52
2023/08/11 03:58:39;;;;;;;6.07;4.75;;;19.40;61.40;;;;;;5028757;28;20052;-51
2023/08/11 04:01:07;;;;;;;7.93;5.13;;;19.40;61.20;;;;;;5032485;28;20061;-51
2023/08/11 04:03:37;;;;;;;12.50;6.35;;;19.40;61.30;;;;;;5028714;28;20411;-50
2023/08/11 04:06:08;;;;;;;6.72;4.65;;;19.40;61.40;;;;;;5005516;28;20518;-53
2023/08/11 04:08:37;;;;;;;8.35;5.40;;;19.30;61.60;;;;;;5009476;28;20052;-53
2023/08/11 04:11:11;;;;;;;9.23;5.50;;;19.30;61.40;;;;;;5014266;28;20073;-50
2023/08/11 04:13:37;;;;;;;6.82;5.30;;;19.30;61.90;;;;;;5011642;28;20041;-53
2023/08/11 04:16:04;;;;;;;8.48;6.13;;;19.30;61.50;;;;;;5029605;28;20112;-53
2023/08/11 04:18:34;;;;;;;9.15;4.88;;;19.30;61.70;;;;;;5016148;28;20115;-53
2023/08/11 04:21:02;;;;;;;7.00;5.28;;;19.20;61.90;;;;;;5011054;28;20064;-53
2023/08/11 04:23:30;;;;;;;5.55;4.70;;;19.30;61.90;;;;;;5011432;28;20574;-50
2023/08/11 04:26:05;;;;;;;;;;;19.30;61.90;;;;;;5009396;28;20041;-53
2023/08/11 04:28:33;;;;;;;15.13;7.20;;;19.30;61.50;;;;;;5013623;28;19925;-53
2023/08/11 04:31:01;;;;;;;6.07;4.93;;;19.30;61.40;;;;;;5018191;28;20098;-53
2023/08/11 04:33:32;;;;;;;9.88;6.30;;;19.20;61.70;;;;;;5004842;28;20052;-53
2023/08/11 04:35:58;;;;;;;6.88;5.38;;;19.20;61.90;;;;;;5030486;28;20057;-53
2023/08/11 04:38:27;;;;;;;8.43;6.53;;;19.20;62.00;;;;;;5026216;28;20450;-53
2023/08/11 04:40:53;;;;;;;8.07;5.43;;;19.20;62.00;;;;;;5010996;28;20497;-54
2023/08/11 04:43:30;;;;;;;7.45;5.13;;;19.20;62.20;;;;;;5028880;28;20049;-53
2023/08/11 04:46:14;;;;;;;7.60;6.22;;;19.20;62.20;;;;;;5031347;28;20057;-53
2023/08/11 04:48:44;;;;;;;7.55;5.63;;;19.20;62.20;;;;;;5002961;28;20070;-54
2023/08/11 04:51:11;;;;;;;7.70;5.25;;;19.20;62.30;;;;;;5008689;28;20045;-54
2023/08/11 04:53:38;;;;;;;9.07;5.75;;;19.20;62.40;;;;;;5011467;28;20042;-54
2023/08/11 04:56:04;;;;;;;7.88;5.30;;;19.20;62.40;;;;;;5011595;28;20090;-53
2023/08/11 04:58:35;;;;;;;9.10;5.32;;;19.30;62.60;;;;;;5017521;28;20041;-54
2023/08/11 05:01:03;;;;;;;6.25;5.53;;;19.20;62.60;;;;;;5032515;28;20529;-52
2023/08/11 05:03:31;;;;;;;8.35;4.75;;;19.30;62.70;;;;;;5025271;28;20053;-53
2023/08/11 05:05:58;;;;;;;7.53;4.95;;;19.30;62.80;;;;;;5025545;28;20045;-54
2023/08/11 05:08:24;;;;;;;11.07;5.32;;;19.30;62.80;;;;;;5029396;28;20060;-52
2023/08/11 05:10:51;;;;;;;8.48;5.18;;;19.30;63.00;;;;;;5027825;28;20076;-53
2023/08/11 05:13:18;;;;;;;6.93;5.22;;;19.30;63.00;;;;;;5021569;28;20039;-52
2023/08/11 05:15:44;;;;;;;6.95;4.90;;;19.30;63.00;;;;;;5028360;28;20073;-51
2023/08/11 05:18:11;;;;;;;9.02;5.53;;;19.40;63.20;;;;;;5028559;28;20045;-53
2023/08/11 05:20:38;;;;;;;5.93;4.82;;;19.30;63.20;;;;;;5035031;28;20041;-53
2023/08/11 05:23:04;;;;;;;7.75;5.70;;;19.40;63.30;;;;;;5031938;28;20076;-53
2023/08/11 05:25:31;;;;;;;9.27;5.57;;;19.40;63.40;;;;;;5030373;28;20033;-54
2023/08/11 05:27:58;;;;;;;8.50;4.80;;;19.40;64.10;;;;;;5030503;28;20643;-54
2023/08/11 05:30:25;;;;;;;6.53;5.55;;;19.40;63.60;;;;;;5036916;28;20041;-49
2023/08/11 05:32:52;;;;;;;7.50;5.43;;;19.40;63.60;;;;;;5029004;28;20455;-53
2023/08/11 05:35:21;;;;;;;10.85;5.72;;;19.50;63.70;;;;;;5032296;28;20045;-49
2023/08/11 05:37:48;;;;;;;6.18;5.05;;;19.50;64.40;;;;;;5035880;28;20120;-53
2023/08/11 05:40:16;;;;;;;7.07;5.40;;;19.50;63.80;;;;;;5031087;28;20124;-48
2023/08/11 05:42:43;;;;;;;8.48;5.68;;;19.60;64.00;;;;;;5030557;28;20099;-53
2023/08/11 05:45:10;;;;;;;7.63;5.05;;;19.60;64.10;;;;;;5035593;28;20072;-54
2023/08/11 05:47:36;;;;;;;6.18;4.68;;;19.60;64.10;;;;;;5032684;28;20099;-53
2023/08/11 05:50:04;;;;;;;6.88;6.13;;;19.60;64.20;;;;;;5030218;28;20160;-50
2023/08/11 05:52:31;;;;;;;6.35;5.30;;;19.70;64.30;;;;;;5030057;28;20170;-53
2023/08/11 05:54:57;;;;;;;5.28;4.78;;;19.70;64.30;;;;;;5030915;28;20049;-56
2023/08/11 05:57:24;;;;;;;6.85;5.13;;;19.70;64.40;;;;;;5031002;28;20084;-54
2023/08/11 05:59:53;;;;;;;9.25;5.53;;;19.70;64.50;;;;;;5035063;28;20135;-52
2023/08/11 06:02:20;;;;;;;7.07;5.05;;;19.80;64.60;;;;;;5025558;28;20128;-53
2023/08/11 06:04:47;;;;;;;8.13;4.88;;;19.80;64.50;;;;;;5030631;28;20072;-51
2023/08/11 06:07:14;;;;;;;7.10;5.35;;;19.80;64.80;;;;;;5032817;28;20049;-54
2023/08/11 06:09:41;;;;;;;9.43;5.75;;;19.90;64.70;;;;;;5029779;28;20132;-54
2023/08/11 06:12:07;;;;;;;6.15;5.07;;;19.90;64.80;;;;;;5034398;28;20077;-54
2023/08/11 06:14:34;;;;;;;9.40;6.15;;;20.00;65.00;;;;;;5030133;28;20164;-54
2023/08/11 06:17:01;;;;;;;11.00;6.15;;;20.00;65.10;;;;;;5029898;28;20064;-52
2023/08/11 06:19:27;;;;;;;9.55;5.63;;;20.10;65.20;;;;;;5032115;28;20122;-54
2023/08/11 06:21:54;;;;;;;7.28;4.75;;;20.10;65.30;;;;;;5030204;28;20581;-51
2023/08/11 06:24:22;;;;;;;6.75;5.13;;;20.10;65.30;;;;;;5030207;28;20458;-52
2023/08/11 06:26:51;;;;;;;9.43;6.30;;;20.20;65.30;;;;;;5030369;28;20041;-53
2023/08/11 06:29:18;;;;;;;8.43;5.22;;;20.20;65.40;;;;;;5029954;28;20106;-52
2023/08/11 06:31:45;;;;;;;8.52;5.00;;;20.20;65.50;;;;;;5030035;28;20500;-52
2023/08/11 06:34:16;;;;;;;8.45;5.70;;;20.30;65.50;;;;;;5031850;28;20041;-54
2023/08/11 06:36:45;;;;;;;7.60;5.85;;;20.30;65.50;;;;;;5036367;28;20052;-54
2023/08/11 06:39:12;;;;;;;8.27;5.40;;;20.40;65.60;;;;;;5030900;28;20073;-54
2023/08/11 06:41:39;;;;;;;7.30;5.10;;;20.40;65.70;;;;;;5028743;28;20092;-54
2023/08/11 06:44:07;;;;;;;5.93;5.15;;;20.50;65.50;;;;;;5035849;28;20041;-53
2023/08/11 06:46:34;;;;;;;6.97;4.68;;;20.50;65.20;;;;;;5036242;28;20045;-54
2023/08/11 06:49:02;;;;;;;5.25;4.47;;;20.60;65.10;;;;;;5031890;28;20056;-53
2023/08/11 06:51:29;;;;;;;5.93;3.92;;;20.60;65.60;;;;;;5029835;28;20144;-54
2023/08/11 06:53:55;;;;;;;8.07;4.05;;;20.70;64.70;;;;;;5032178;28;20046;-54
2023/08/11 06:56:22;;;;;;;6.43;4.00;;;20.80;65.00;;;;;;5030458;28;20103;-54
2023/08/11 06:58:49;;;;;;;5.68;3.85;;;20.80;65.00;;;;;;5031342;28;20068;-50
2023/08/11 07:01:17;;;;;;;8.40;4.60;;;20.80;64.40;;;;;;5034216;28;20149;-54
2023/08/11 07:03:44;;;;;;;5.70;4.25;;;20.90;64.60;;;;;;5028009;28;20103;-54
2023/08/11 07:06:11;;;;;;;5.75;3.10;;;20.90;64.60;;;;;;5029997;28;20124;-53
2023/08/11 07:08:39;;;;;;;8.27;3.75;;;21.00;64.00;;;;;;5031689;28;20041;-53
2023/08/11 07:11:06;;;;;;;6.72;3.80;;;21.10;62.90;;;;;;5031122;28;20499;-52
2023/08/11 07:13:32;;;;;;;5.00;3.25;;;21.10;63.50;;;;;;5029873;28;20048;-53
2023/08/11 07:16:00;;;;;;;6.03;3.67;;;21.20;63.60;;;;;;5029569;28;20045;-49
2023/08/11 07:18:27;;;;;;;5.60;2.95;;;21.20;63.30;;;;;;5031502;28;20060;-54
2023/08/11 07:20:54;;;;;;;3.85;3.45;;;21.30;63.10;;;;;;5030615;28;20071;-53
2023/08/11 07:23:24;;;;;;;4.47;2.90;;;21.40;62.80;;;;;;5007969;28;20042;-54
2023/08/11 07:25:51;;;;;;;4.13;3.30;;;21.50;62.50;;;;;;5027104;28;20048;-51
2023/08/11 07:28:17;;;;;;;3.35;2.65;;;21.50;62.00;;;;;;5034391;28;20045;-54
2023/08/11 07:30:44;;;;;;;3.95;2.92;;;21.60;61.60;;;;;;5034297;28;20579;-50
2023/08/11 07:33:13;;;;;;;3.72;2.95;;;21.70;61.40;;;;;;5029391;28;20065;-51
2023/08/11 07:35:40;;;;;;;3.72;3.10;;;21.70;60.70;;;;;;5030109;28;20124;-51
2023/08/11 07:38:07;;;;;;;3.30;2.20;;;21.80;60.80;;;;;;5033584;28;20045;-52
2023/08/11 07:40:38;;;;;;;5.13;2.88;;;21.90;60.30;;;;;;5029311;28;20041;-54
2023/08/11 07:43:05;;;;;;;3.20;2.30;;;22.00;60.10;;;;;;5029467;28;20072;-53
2023/08/11 07:45:33;;;;;;;3.47;2.63;;;22.10;59.20;;;;;;5030534;28;20130;-51
2023/08/11 07:48:00;;;;;;;2.40;2.20;;;22.20;58.60;;;;;;5028927;28;20056;-52
2023/08/11 07:50:28;;;;;;;3.28;2.75;;;22.20;59.10;;;;;;5029038;28;20076;-54
2023/08/11 07:52:57;;;;;;;3.47;2.45;;;22.30;58.40;;;;;;5028433;28;20045;-54
2023/08/11 07:55:24;;;;;;;3.05;2.38;;;22.40;58.20;;;;;;5029085;28;20045;-54
2023/08/11 07:57:51;;;;;;;3.97;2.65;;;22.50;57.80;;;;;;5031505;28;20492;-54
2023/08/11 08:00:21;;;;;;;2.80;2.53;;;22.60;57.80;;;;;;5026637;28;20076;-52
2023/08/11 08:02:47;;;;;;;4.70;2.47;;;22.70;57.40;;;;;;5029033;28;20069;-52
2023/08/11 08:05:15;;;;;;;2.75;2.22;;;22.80;57.30;;;;;;5028048;28;20136;-51
2023/08/11 08:07:42;;;;;;;2.70;2.10;;;22.80;56.90;;;;;;5030393;28;20107;-53
2023/08/11 08:10:10;;;;;;;3.17;2.58;;;23.00;57.00;;;;;;5032786;28;20048;-53
2023/08/11 08:12:38;;;;;;;3.85;2.50;;;23.00;56.10;;;;;;5028760;28;20048;-54
2023/08/11 08:15:06;;;;;;;3.00;2.30;;;23.10;55.80;;;;;;5027514;28;20473;-54
2023/08/11 08:17:33;;;;;;;3.58;2.22;;;23.20;55.50;;;;;;5034380;28;20048;-51
2023/08/11 08:20:00;;;;;;;3.10;2.30;;;23.30;56.10;;;;;;5027480;28;20042;-55
2023/08/11 08:22:27;;;;;;;4.45;2.45;;;23.40;55.90;;;;;;5028817;28;20091;-53
2023/08/11 08:24:55;;;;;;;2.78;2.55;;;23.50;55.90;;;;;;5028376;28;20052;-53
2023/08/11 08:27:24;;;;;;;3.33;2.60;;;23.50;55.50;;;;;;5029551;28;20038;-54
2023/08/11 08:29:52;;;;;;;5.10;2.70;;;23.60;55.10;;;;;;5005878;28;20092;-54
2023/08/11 08:32:20;;;;;;;3.30;2.30;;;23.70;55.30;;;;;;5024235;28;20133;-51
2023/08/11 08:34:50;;;;;;;4.88;3.28;;;23.80;54.70;;;;;;5028505;28;20037;-54
2023/08/11 08:37:19;;;;;;;3.08;2.40;;;23.90;54.70;;;;;;5029721;28;20541;-54
2023/08/11 08:39:49;;;;;;;3.97;2.30;;;24.00;54.00;;;;;;5028702;28;20068;-54
2023/08/11 08:42:16;;;;;;;2.60;2.40;;;24.10;54.30;;;;;;5028352;28;20534;-54
2023/08/11 08:44:44;;;;;;;2.58;2.30;;;24.10;54.40;;;;;;5029378;28;20594;-53
2023/08/11 08:47:12;;;;;;;2.33;1.83;;;24.20;54.20;;;;;;5032207;28;20072;-52
2023/08/11 08:49:41;;;;;;;3.75;2.60;;;24.30;53.70;;;;;;5029297;28;20129;-54
2023/08/11 08:52:08;;;;;;;3.13;1.73;;;24.40;53.70;;;;;;5028385;28;20045;-54
2023/08/11 08:54:35;;;;;;;3.42;2.53;;;24.50;53.80;;;;;;5036829;28;20034;-50
2023/08/11 08:57:06;;;;;;;4.65;2.80;;;24.50;54.20;;;;;;5024190;28;20495;-52
2023/08/11 08:59:33;;;;;;;3.97;2.53;;;24.60;53.80;;;;;;5030449;28;20099;-51
2023/08/11 09:02:00;;;;;;;3.05;2.40;;;24.60;53.50;;;;;;5011239;28;20087;-54
2023/08/11 09:04:32;;;;;;;3.53;2.43;;;24.70;53.80;;;;;;5023751;28;20069;-54
2023/08/11 09:07:00;;;;;;;2.53;2.33;;;24.80;53.40;;;;;;5032105;28;20037;-54
2023/08/11 09:09:29;;;;;;;4.43;2.53;;;24.90;53.30;;;;;;5035074;28;20456;-52
2023/08/11 09:11:57;;;;;;;3.78;2.03;;;24.90;53.50;;;;;;5036127;28;20068;-53
2023/08/11 09:14:24;;;;;;;2.17;1.98;;;25.00;53.40;;;;;;5024149;28;20043;-50
2023/08/11 09:16:53;;;;;;;2.00;1.80;;;25.10;53.30;;;;;;5032952;28;20562;-54
2023/08/11 09:19:20;;;;;;;3.40;2.10;;;25.20;53.30;;;;;;5025384;28;20080;-53
2023/08/11 09:21:47;;;;;;;3.33;1.98;;;25.20;53.20;;;;;;5024208;28;20060;-53
2023/08/11 09:24:17;;;;;;;2.50;2.30;;;25.30;53.00;;;;;;5031093;28;20129;-52
2023/08/11 09:26:49;;;;;;;4.05;2.08;;;25.40;52.80;;;;;;5035972;28;20572;-53
2023/08/11 09:29:19;;;;;;;2.90;2.70;;;25.40;53.00;;;;;;5033805;28;20053;-54
2023/08/11 09:31:48;;;;;;;2.22;1.88;;;25.50;52.60;;;;;;5031544;28;20134;-54
2023/08/11 09:34:17;;;;;;;2.88;2.25;;;25.60;52.60;;;;;;5032290;28;20084;-54
2023/08/11 09:36:48;;;;;;;2.33;2.13;;;25.60;51.40;;;;;;5021491;28;20170;-54
2023/08/11 09:39:16;;;;;;;2.58;2.25;;;25.70;52.10;;;;;;5036472;28;20083;-54
2023/08/11 09:41:47;;;;;;;2.50;2.30;;;25.70;51.40;;;;;;5023916;28;20033;-54
2023/08/11 09:44:19;;;;;;;5.93;1.85;;;25.80;50.90;;;;;;5030768;28;20092;-52
2023/08/11 09:46:47;;;;;;;2.10;1.77;;;25.90;50.80;;;;;;5035891;28;20041;-53
2023/08/11 09:49:14;;;;;;;2.25;2.05;;;26.00;50.90;;;;;;5039365;28;20047;-51
2023/08/11 09:51:42;;;;;;;2.53;1.85;;;26.00;49.80;;;;;;5031665;28;20587;-54
2023/08/11 09:54:10;;;;;;;2.92;2.05;;;26.00;49.70;;;;;;5032740;28;20104;-54
2023/08/11 09:56:39;;;;;;;2.28;2.05;;;26.10;49.00;;;;;;5034193;28;20144;-54
2023/08/11 09:59:11;;;;;;;2.58;1.90;;;26.20;50.00;;;;;;5032627;28;20103;-53
2023/08/11 10:01:41;;;;;;;2.47;1.92;;;26.30;48.60;;;;;;5031961;28;20432;-56
2023/08/11 10:04:12;;;;;;;1.98;1.80;;;26.30;49.10;;;;;;5030060;28;20117;-56
2023/08/11 10:06:46;;;;;;;3.15;2.03;;;26.40;49.30;;;;;;5010793;28;20136;-55
2023/08/11 10:09:14;;;;;;;2.25;1.85;;;26.40;49.10;;;;;;5030433;28;20050;-54
2023/08/11 10:11:43;;;;;;;1.77;1.67;;;26.50;49.10;;;;;;5012761;28;20069;-54
2023/08/11 10:14:16;;;;;;;2.72;1.85;;;26.60;48.60;;;;;;5030013;28;20112;-56
2023/08/11 10:16:46;;;;;;;3.20;1.83;;;26.60;47.70;;;;;;5043642;28;20601;-53
2023/08/11 10:19:13;;;;;;;1.75;1.65;;;26.70;49.30;;;;;;5030754;28;20152;-54
2023/08/11 10:21:40;;;;;;;2.58;2.00;;;26.80;49.30;;;;;;5030164;28;20099;-54
2023/08/11 10:24:08;;;;;;;1.88;1.77;;;26.80;48.40;;;;;;5031717;28;20041;-53
2023/08/11 10:26:35;;;;;;;2.85;2.00;;;26.90;48.20;;;;;;5030247;28;20037;-53
2023/08/11 10:29:03;;;;;;;2.97;1.95;;;27.00;47.70;;;;;;5031200;28;20157;-54
2023/08/11 10:31:33;;;;;;;2.83;1.92;;;27.00;47.40;;;;;;5015493;28;20115;-51
2023/08/11 10:34:06;;;;;;;2.90;1.77;;;27.10;47.40;;;;;;5029799;28;20084;-54
2023/08/11 10:36:33;;;;;;;2.25;2.03;;;27.10;47.80;;;;;;5023864;28;20116;-54
2023/08/11 10:39:05;;;;;;;3.15;1.98;;;27.20;47.40;;;;;;5030817;28;20117;-54
2023/08/11 10:41:33;;;;;;;;;;;27.30;47.60;;;;;;5019498;28;20034;-53
2023/08/11 10:44:00;;;;;;;2.55;1.67;;;27.40;48.20;;;;;;5027234;28;19971;-55
2023/08/11 10:46:35;;;;;;;5.05;2.00;;;27.50;47.60;;;;;;5035333;28;20049;-54
2023/08/11 10:49:04;;;;;;;1.80;1.70;;;27.50;47.00;;;;;;5041761;28;20049;-54
2023/08/11 10:51:38;;;;;;;2.30;1.75;;;27.50;46.70;;;;;;5025034;28;20052;-53
2023/08/11 10:54:10;;;;;;;1.63;1.52;;;27.60;48.30;;;;;;5025833;28;20053;-54
2023/08/11 10:56:42;;;;;;;2.70;2.05;;;27.70;47.20;;;;;;5022376;28;20049;-54
2023/08/11 10:59:13;;;;;;;3.58;1.92;;;27.70;47.50;;;;;;5037132;28;20034;-54
2023/08/11 11:01:41;;;;;;;3.47;1.95;;;27.70;47.30;;;;;;5032685;28;20037;-54
2023/08/11 11:04:09;;;;;;;2.58;2.38;;;27.80;47.20;;;;;;5009986;28;20056;-55
2023/08/11 11:06:36;;;;;;;2.17;1.98;;;27.80;47.40;;;;;;5029705;28;20176;-53
2023/08/11 11:09:03;;;;;;;3.58;2.08;;;27.90;47.40;;;;;;5031263;28;20454;-54
2023/08/11 11:11:30;;;;;;;2.00;1.90;;;27.90;46.90;;;;;;5027826;28;20052;-51
2023/08/11 11:13:57;;;;;;;1.92;1.80;;;28.00;46.80;;;;;;5029137;28;20076;-53
2023/08/11 11:16:24;;;;;;;2.95;2.30;;;28.10;47.60;;;;;;5032965;28;20052;-54
2023/08/11 11:18:51;;;;;;;5.15;2.08;;;28.10;46.90;;;;;;5038635;28;20442;-55
2023/08/11 11:21:19;;;;;;;2.45;2.00;;;28.20;46.80;;;;;;5030578;28;20043;-54
2023/08/11 11:23:50;;;;;;;2.08;1.67;;;28.30;46.80;;;;;;5030918;28;20044;-55
2023/08/11 11:26:30;;;;;;;5.00;2.25;;;28.40;47.70;;;;;;5031916;28;20041;-55
2023/08/11 11:28:59;;;;;;;3.35;2.42;;;28.40;46.20;;;;;;5031345;28;20061;-55
2023/08/11 11:31:28;;;;;;;4.70;2.42;;;28.50;46.50;;;;;;5032477;28;20041;-55
2023/08/11 11:33:56;;;;;;;3.97;2.40;;;28.60;46.10;;;;;;5032857;28;20068;-55
2023/08/11 11:36:23;;;;;;;2.78;1.70;;;28.60;45.40;;;;;;5029154;28;20061;-53
2023/08/11 11:38:51;;;;;;;2.25;2.05;;;28.70;46.30;;;;;;5030621;28;20076;-54
2023/08/11 11:41:20;;;;;;;3.58;1.98;;;28.70;46.00;;;;;;5028803;28;20037;-54
2023/08/11 11:43:51;;;;;;;2.72;2.53;;;28.80;46.40;;;;;;5025606;28;20041;-54
2023/08/11 11:46:19;;;;;;;4.00;2.25;;;28.90;46.10;;;;;;5035112;28;20041;-54
2023/08/11 11:48:48;;;;;;;2.53;2.10;;;28.90;45.80;;;;;;5028619;28;20056;-54
2023/08/11 11:51:20;;;;;;;3.03;1.90;;;29.00;45.80;;;;;;5030856;28;20124;-53
2023/08/11 11:53:50;;;;;;;2.78;2.42;;;29.10;45.90;;;;;;5029202;28;20463;-55
2023/08/11 11:56:18;;;;;;;3.67;1.98;;;29.10;45.40;;;;;;5031451;28;20069;-55
2023/08/11 11:58:48;;;;;;;2.92;2.10;;;29.20;45.00;;;;;;5029118;28;20044;-55
2023/08/11 12:01:19;;;;;;;2.38;2.13;;;29.30;45.00;;;;;;5035178;28;20080;-55
2023/08/11 12:03:47;;;;;;;4.13;2.10;;;29.40;43.90;;;;;;5022846;28;20049;-54
2023/08/11 12:06:18;;;;;;;2.33;2.03;;;29.50;44.10;;;;;;5036301;28;20111;-54
2023/08/11 12:08:45;;;;;;;3.65;2.25;;;29.50;43.40;;;;;;5027158;28;20502;-53
2023/08/11 12:11:13;;;;;;;1.98;1.77;;;29.60;44.00;;;;;;5028823;28;20148;-54
2023/08/11 12:13:42;;;;;;;2.80;2.50;;;29.70;43.60;;;;;;5022987;28;20454;-55
2023/08/11 12:16:13;;;;;;;3.67;2.45;;;29.80;43.40;;;;;;5035519;28;20136;-53
2023/08/11 12:18:41;;;;;;;3.85;1.98;;;29.90;42.80;;;;;;5026883;28;20048;-54
2023/08/11 12:21:10;;;;;;;4.32;2.30;;;30.00;42.50;;;;;;5030058;28;20038;-54
2023/08/11 12:23:37;;;;;;;2.60;2.10;;;30.10;41.60;;;;;;5020716;28;20041;-53
2023/08/11 12:26:05;;;;;;;4.30;2.25;;;30.20;41.60;;;;;;5035270;28;20100;-54
2023/08/11 12:28:31;;;;;;;3.72;2.30;;;30.30;42.30;;;;;;5028723;28;20116;-55
2023/08/11 12:31:02;;;;;;;4.03;2.35;;;30.50;42.00;;;;;;5040285;28;20064;-54
2023/08/11 12:33:29;;;;;;;2.58;2.05;;;30.60;42.30;;;;;;5027432;28;20136;-54
2023/08/11 12:35:56;;;;;;;9.80;2.88;;;30.70;41.50;;;;;;5015748;28;20099;-55
2023/08/11 12:38:23;;;;;;;2.88;2.30;;;30.90;41.70;;;;;;5036060;28;20470;-55
2023/08/11 12:40:52;;;;;;;2.92;2.72;;;31.00;42.40;;;;;;5036184;28;20116;-55
2023/08/11 12:43:19;;;;;;;2.45;2.25;;;31.10;42.20;;;;;;5028556;28;20045;-55
2023/08/11 12:45:46;;;;;;;2.42;2.20;;;31.30;42.00;;;;;;5037610;28;20045;-55
2023/08/11 12:48:14;;;;;;;4.13;2.40;;;31.40;41.70;;;;;;5035517;28;20073;-54
2023/08/11 12:50:41;;;;;;;5.90;2.15;;;31.50;40.70;;;;;;5027989;28;20397;-55
2023/08/11 12:53:09;;;;;;;3.28;2.40;;;31.70;41.00;;;;;;5032243;28;20405;-55
2023/08/11 12:55:37;;;;;;;3.10;2.33;;;31.80;40.30;;;;;;5035977;28;20034;-55